sensor_id;sensor_type;location;lat;lon;timestamp;P1;durP1;ratioP1;P2;durP2;ratioP2
74347;SDS011;62778;50.406;10.008;2023-03-01T00:00:43;18.47;;;10.77;;
74347;SDS011;62778;50.406;10.008;2023-03-01T00:01:41;17.70;;;10.25;;
74347;SDS011;62778;50.406;10.008;2023-03-01T00:02:36;20.07;;;10.07;;
74347;SDS011;62778;50.406;10.008;2023-03-01T00:03:32;18.63;;;10.70;;
74347;SDS011;62778;50.406;10.008;2023-03-01T00:04:28;17.95;;;10.32;;
74347;SDS011;62778;50.406;10.008;2023-03-01T00:05:23;17.63;;;10.23;;
74347;SDS011;62778;50.406;10.008;2023-03-01T00:06:19;17.67;;;9.60;;
74347;SDS011;62778;50.406;10.008;2023-03-01T00:07:15;17.37;;;9.57;;
74347;SDS011;62778;50.406;10.008;2023-03-01T00:08:10;18.25;;;10.10;;
74347;SDS011;62778;50.406;10.008;2023-03-01T00:09:05;16.90;;;9.83;;
74347;SDS011;62778;50.406;10.008;2023-03-01T00:10:01;16.77;;;9.43;;
74347;SDS011;62778;50.406;10.008;2023-03-01T00:11:15;17.17;;;9.18;;
74347;SDS011;62778;50.406;10.008;2023-03-01T00:12:12;18.53;;;9.37;;
74347;SDS011;62778;50.406;10.008;2023-03-01T00:13:07;16.55;;;8.45;;
74347;SDS011;62778;50.406;10.008;2023-03-01T00:14:03;17.17;;;9.13;;
74347;SDS011;62778;50.406;10.008;2023-03-01T00:15:02;16.67;;;9.65;;
74347;SDS011;62778;50.406;10.008;2023-03-01T00:16:01;17.98;;;9.10;;
74347;SDS011;62778;50.406;10.008;2023-03-01T00:17:06;19.42;;;8.82;;
74347;SDS011;62778;50.406;10.008;2023-03-01T00:18:01;15.87;;;8.77;;
74347;SDS011;62778;50.406;10.008;2023-03-01T00:18:57;16.10;;;9.38;;
74347;SDS011;62778;50.406;10.008;2023-03-01T00:19:52;18.57;;;9.20;;
74347;SDS011;62778;50.406;10.008;2023-03-01T00:20:51;16.53;;;9.10;;
74347;SDS011;62778;50.406;10.008;2023-03-01T00:21:47;18.77;;;9.60;;
74347;SDS011;62778;50.406;10.008;2023-03-01T00:22:43;17.08;;;9.80;;
74347;SDS011;62778;50.406;10.008;2023-03-01T00:23:38;17.57;;;8.80;;
74347;SDS011;62778;50.406;10.008;2023-03-01T00:24:34;18.13;;;9.50;;
74347;SDS011;62778;50.406;10.008;2023-03-01T00:25:29;16.30;;;9.13;;
74347;SDS011;62778;50.406;10.008;2023-03-01T00:26:25;14.47;;;8.93;;
74347;SDS011;62778;50.406;10.008;2023-03-01T00:27:20;15.00;;;8.85;;
74347;SDS011;62778;50.406;10.008;2023-03-01T00:28:16;16.77;;;8.80;;
74347;SDS011;62778;50.406;10.008;2023-03-01T00:29:11;17.13;;;9.27;;
74347;SDS011;62778;50.406;10.008;2023-03-01T00:30:07;17.25;;;9.40;;
74347;SDS011;62778;50.406;10.008;2023-03-01T00:31:05;17.50;;;9.30;;
74347;SDS011;62778;50.406;10.008;2023-03-01T00:32:01;18.05;;;9.13;;
74347;SDS011;62778;50.406;10.008;2023-03-01T00:32:57;17.92;;;9.43;;
74347;SDS011;62778;50.406;10.008;2023-03-01T00:33:53;17.50;;;8.97;;
74347;SDS011;62778;50.406;10.008;2023-03-01T00:34:52;16.67;;;9.15;;
74347;SDS011;62778;50.406;10.008;2023-03-01T00:35:51;15.90;;;8.75;;
74347;SDS011;62778;50.406;10.008;2023-03-01T00:36:46;16.03;;;8.83;;
74347;SDS011;62778;50.406;10.008;2023-03-01T00:37:41;16.10;;;8.83;;
74347;SDS011;62778;50.406;10.008;2023-03-01T00:38:38;19.80;;;9.90;;
74347;SDS011;62778;50.406;10.008;2023-03-01T00:39:34;17.20;;;8.85;;
74347;SDS011;62778;50.406;10.008;2023-03-01T00:40:30;16.13;;;8.63;;
74347;SDS011;62778;50.406;10.008;2023-03-01T00:41:27;17.30;;;9.38;;
74347;SDS011;62778;50.406;10.008;2023-03-01T00:42:22;16.10;;;8.70;;
74347;SDS011;62778;50.406;10.008;2023-03-01T00:43:18;14.90;;;8.50;;
74347;SDS011;62778;50.406;10.008;2023-03-01T00:44:13;15.23;;;8.43;;
74347;SDS011;62778;50.406;10.008;2023-03-01T00:45:09;16.07;;;9.30;;
74347;SDS011;62778;50.406;10.008;2023-03-01T00:46:05;17.02;;;8.52;;
74347;SDS011;62778;50.406;10.008;2023-03-01T00:47:02;15.60;;;8.82;;
74347;SDS011;62778;50.406;10.008;2023-03-01T00:47:58;15.70;;;8.40;;
74347;SDS011;62778;50.406;10.008;2023-03-01T00:48:53;13.03;;;7.63;;
74347;SDS011;62778;50.406;10.008;2023-03-01T00:49:49;16.23;;;8.60;;
74347;SDS011;62778;50.406;10.008;2023-03-01T00:50:44;17.13;;;9.20;;
74347;SDS011;62778;50.406;10.008;2023-03-01T00:51:39;16.52;;;9.00;;
74347;SDS011;62778;50.406;10.008;2023-03-01T00:52:36;14.30;;;8.27;;
74347;SDS011;62778;50.406;10.008;2023-03-01T00:53:32;15.95;;;8.80;;
74347;SDS011;62778;50.406;10.008;2023-03-01T00:54:27;15.70;;;9.15;;
74347;SDS011;62778;50.406;10.008;2023-03-01T00:55:23;17.67;;;9.50;;
74347;SDS011;62778;50.406;10.008;2023-03-01T00:56:20;15.48;;;8.40;;
74347;SDS011;62778;50.406;10.008;2023-03-01T00:57:15;18.20;;;8.37;;
74347;SDS011;62778;50.406;10.008;2023-03-01T00:58:10;15.98;;;8.50;;
74347;SDS011;62778;50.406;10.008;2023-03-01T00:59:06;15.07;;;8.13;;
74347;SDS011;62778;50.406;10.008;2023-03-01T01:00:01;16.40;;;9.10;;
74347;SDS011;62778;50.406;10.008;2023-03-01T01:00:59;16.63;;;8.63;;
74347;SDS011;62778;50.406;10.008;2023-03-01T01:01:54;15.63;;;8.17;;
74347;SDS011;62778;50.406;10.008;2023-03-01T01:02:49;15.50;;;8.97;;
74347;SDS011;62778;50.406;10.008;2023-03-01T01:03:49;15.07;;;8.20;;
74347;SDS011;62778;50.406;10.008;2023-03-01T01:04:46;15.82;;;8.52;;
74347;SDS011;62778;50.406;10.008;2023-03-01T01:05:41;15.68;;;8.85;;
74347;SDS011;62778;50.406;10.008;2023-03-01T01:06:44;16.50;;;8.70;;
74347;SDS011;62778;50.406;10.008;2023-03-01T01:07:40;15.35;;;8.32;;
74347;SDS011;62778;50.406;10.008;2023-03-01T01:08:36;17.50;;;9.00;;
74347;SDS011;62778;50.406;10.008;2023-03-01T01:09:31;14.45;;;8.07;;
74347;SDS011;62778;50.406;10.008;2023-03-01T01:10:26;19.07;;;9.63;;
74347;SDS011;62778;50.406;10.008;2023-03-01T01:11:23;16.27;;;8.40;;
74347;SDS011;62778;50.406;10.008;2023-03-01T01:12:21;18.45;;;9.25;;
74347;SDS011;62778;50.406;10.008;2023-03-01T01:13:16;20.30;;;9.20;;
74347;SDS011;62778;50.406;10.008;2023-03-01T01:14:12;19.00;;;9.57;;
74347;SDS011;62778;50.406;10.008;2023-03-01T01:15:08;17.63;;;9.07;;
74347;SDS011;62778;50.406;10.008;2023-03-01T01:16:03;16.25;;;9.13;;
74347;SDS011;62778;50.406;10.008;2023-03-01T01:16:59;16.75;;;8.88;;
74347;SDS011;62778;50.406;10.008;2023-03-01T01:17:54;15.80;;;8.87;;
74347;SDS011;62778;50.406;10.008;2023-03-01T01:18:50;18.20;;;9.53;;
74347;SDS011;62778;50.406;10.008;2023-03-01T01:19:45;15.80;;;8.38;;
74347;SDS011;62778;50.406;10.008;2023-03-01T01:20:41;15.52;;;8.60;;
74347;SDS011;62778;50.406;10.008;2023-03-01T01:21:36;14.83;;;8.63;;
74347;SDS011;62778;50.406;10.008;2023-03-01T01:22:31;15.43;;;8.47;;
74347;SDS011;62778;50.406;10.008;2023-03-01T01:23:27;15.88;;;8.48;;
74347;SDS011;62778;50.406;10.008;2023-03-01T01:24:22;14.63;;;8.40;;
74347;SDS011;62778;50.406;10.008;2023-03-01T01:25:17;14.30;;;8.47;;
74347;SDS011;62778;50.406;10.008;2023-03-01T01:26:17;16.10;;;8.13;;
74347;SDS011;62778;50.406;10.008;2023-03-01T01:27:14;14.68;;;8.05;;
74347;SDS011;62778;50.406;10.008;2023-03-01T01:28:10;17.17;;;8.82;;
74347;SDS011;62778;50.406;10.008;2023-03-01T01:29:05;14.60;;;8.03;;
74347;SDS011;62778;50.406;10.008;2023-03-01T01:30:01;16.48;;;8.77;;
74347;SDS011;62778;50.406;10.008;2023-03-01T01:30:56;17.57;;;9.03;;
74347;SDS011;62778;50.406;10.008;2023-03-01T01:31:52;18.33;;;9.47;;
74347;SDS011;62778;50.406;10.008;2023-03-01T01:32:47;18.50;;;9.50;;
74347;SDS011;62778;50.406;10.008;2023-03-01T01:33:42;17.92;;;9.45;;
74347;SDS011;62778;50.406;10.008;2023-03-01T01:34:38;16.73;;;9.43;;
74347;SDS011;62778;50.406;10.008;2023-03-01T01:35:33;16.37;;;8.97;;
74347;SDS011;62778;50.406;10.008;2023-03-01T01:36:29;15.73;;;8.23;;
74347;SDS011;62778;50.406;10.008;2023-03-01T01:37:25;15.77;;;8.43;;
74347;SDS011;62778;50.406;10.008;2023-03-01T01:38:26;16.88;;;9.38;;
74347;SDS011;62778;50.406;10.008;2023-03-01T01:39:21;16.77;;;9.13;;
74347;SDS011;62778;50.406;10.008;2023-03-01T01:40:17;19.77;;;9.70;;
74347;SDS011;62778;50.406;10.008;2023-03-01T01:41:12;16.38;;;9.13;;
74347;SDS011;62778;50.406;10.008;2023-03-01T01:42:13;20.87;;;10.60;;
74347;SDS011;62778;50.406;10.008;2023-03-01T01:43:18;22.52;;;11.20;;
74347;SDS011;62778;50.406;10.008;2023-03-01T01:46:30;18.45;;;9.50;;
74347;SDS011;62778;50.406;10.008;2023-03-01T01:47:26;18.27;;;9.75;;
74347;SDS011;62778;50.406;10.008;2023-03-01T01:48:23;16.87;;;8.97;;
74347;SDS011;62778;50.406;10.008;2023-03-01T01:49:22;16.52;;;9.60;;
74347;SDS011;62778;50.406;10.008;2023-03-01T01:50:31;19.98;;;10.38;;
74347;SDS011;62778;50.406;10.008;2023-03-01T01:51:35;17.85;;;9.50;;
74347;SDS011;62778;50.406;10.008;2023-03-01T01:52:35;18.10;;;9.57;;
74347;SDS011;62778;50.406;10.008;2023-03-01T01:53:31;16.92;;;8.57;;
74347;SDS011;62778;50.406;10.008;2023-03-01T01:54:28;18.50;;;9.17;;
74347;SDS011;62778;50.406;10.008;2023-03-01T01:55:26;17.08;;;9.43;;
74347;SDS011;62778;50.406;10.008;2023-03-01T01:56:22;16.45;;;8.82;;
74347;SDS011;62778;50.406;10.008;2023-03-01T01:57:22;17.25;;;9.35;;
74347;SDS011;62778;50.406;10.008;2023-03-01T01:58:21;17.55;;;8.93;;
74347;SDS011;62778;50.406;10.008;2023-03-01T01:59:16;19.77;;;9.97;;
74347;SDS011;62778;50.406;10.008;2023-03-01T02:00:13;21.03;;;10.50;;
74347;SDS011;62778;50.406;10.008;2023-03-01T02:01:11;21.80;;;11.20;;
74347;SDS011;62778;50.406;10.008;2023-03-01T02:02:06;23.85;;;11.38;;
74347;SDS011;62778;50.406;10.008;2023-03-01T02:03:03;20.50;;;10.13;;
74347;SDS011;62778;50.406;10.008;2023-03-01T02:04:01;20.42;;;10.27;;
74347;SDS011;62778;50.406;10.008;2023-03-01T02:05:00;19.13;;;9.53;;
74347;SDS011;62778;50.406;10.008;2023-03-01T02:06:03;17.77;;;8.65;;
74347;SDS011;62778;50.406;10.008;2023-03-01T02:07:03;20.15;;;10.43;;
74347;SDS011;62778;50.406;10.008;2023-03-01T02:08:04;16.57;;;8.40;;
74347;SDS011;62778;50.406;10.008;2023-03-01T02:09:02;17.05;;;8.70;;
74347;SDS011;62778;50.406;10.008;2023-03-01T02:10:00;16.52;;;8.80;;
74347;SDS011;62778;50.406;10.008;2023-03-01T02:10:56;17.58;;;9.65;;
74347;SDS011;62778;50.406;10.008;2023-03-01T02:11:52;16.40;;;8.75;;
74347;SDS011;62778;50.406;10.008;2023-03-01T02:12:48;15.43;;;8.43;;
74347;SDS011;62778;50.406;10.008;2023-03-01T02:13:44;15.43;;;8.05;;
74347;SDS011;62778;50.406;10.008;2023-03-01T02:14:39;16.40;;;8.57;;
74347;SDS011;62778;50.406;10.008;2023-03-01T02:15:35;15.93;;;8.77;;
74347;SDS011;62778;50.406;10.008;2023-03-01T02:16:31;14.40;;;7.67;;
74347;SDS011;62778;50.406;10.008;2023-03-01T02:17:27;16.75;;;8.75;;
74347;SDS011;62778;50.406;10.008;2023-03-01T02:18:22;17.30;;;8.47;;
74347;SDS011;62778;50.406;10.008;2023-03-01T02:19:31;15.75;;;8.40;;
74347;SDS011;62778;50.406;10.008;2023-03-01T02:20:39;18.48;;;9.48;;
74347;SDS011;62778;50.406;10.008;2023-03-01T02:21:56;14.43;;;7.70;;
74347;SDS011;62778;50.406;10.008;2023-03-01T02:22:57;16.23;;;8.35;;
74347;SDS011;62778;50.406;10.008;2023-03-01T02:23:53;14.90;;;7.67;;
74347;SDS011;62778;50.406;10.008;2023-03-01T02:24:55;17.15;;;8.52;;
74347;SDS011;62778;50.406;10.008;2023-03-01T02:26:19;18.05;;;9.40;;
74347;SDS011;62778;50.406;10.008;2023-03-01T02:27:19;18.80;;;9.75;;
74347;SDS011;62778;50.406;10.008;2023-03-01T02:28:24;19.98;;;9.27;;
74347;SDS011;62778;50.406;10.008;2023-03-01T02:29:19;20.10;;;9.70;;
74347;SDS011;62778;50.406;10.008;2023-03-01T02:30:15;22.13;;;10.27;;
74347;SDS011;62778;50.406;10.008;2023-03-01T02:31:13;20.37;;;9.17;;
74347;SDS011;62778;50.406;10.008;2023-03-01T02:32:29;15.90;;;8.23;;
74347;SDS011;62778;50.406;10.008;2023-03-01T02:33:25;20.03;;;9.73;;
74347;SDS011;62778;50.406;10.008;2023-03-01T02:34:22;18.48;;;9.15;;
74347;SDS011;62778;50.406;10.008;2023-03-01T02:35:20;16.38;;;8.55;;
74347;SDS011;62778;50.406;10.008;2023-03-01T02:36:17;18.33;;;9.10;;
74347;SDS011;62778;50.406;10.008;2023-03-01T02:37:15;20.63;;;9.75;;
74347;SDS011;62778;50.406;10.008;2023-03-01T02:38:15;18.42;;;9.10;;
74347;SDS011;62778;50.406;10.008;2023-03-01T02:39:12;17.02;;;9.63;;
74347;SDS011;62778;50.406;10.008;2023-03-01T02:40:15;15.77;;;8.50;;
74347;SDS011;62778;50.406;10.008;2023-03-01T02:41:13;15.40;;;8.02;;
74347;SDS011;62778;50.406;10.008;2023-03-01T02:42:11;15.55;;;8.05;;
74347;SDS011;62778;50.406;10.008;2023-03-01T02:43:08;15.57;;;8.00;;
74347;SDS011;62778;50.406;10.008;2023-03-01T02:44:05;16.15;;;8.60;;
74347;SDS011;62778;50.406;10.008;2023-03-01T02:45:00;16.03;;;8.33;;
74347;SDS011;62778;50.406;10.008;2023-03-01T02:45:57;15.85;;;8.57;;
74347;SDS011;62778;50.406;10.008;2023-03-01T02:46:55;16.47;;;8.20;;
74347;SDS011;62778;50.406;10.008;2023-03-01T02:47:54;14.30;;;7.75;;
74347;SDS011;62778;50.406;10.008;2023-03-01T02:48:52;17.45;;;9.38;;
74347;SDS011;62778;50.406;10.008;2023-03-01T02:49:49;15.45;;;8.27;;
74347;SDS011;62778;50.406;10.008;2023-03-01T02:53:21;14.55;;;7.65;;
74347;SDS011;62778;50.406;10.008;2023-03-01T02:54:25;14.60;;;7.90;;
74347;SDS011;62778;50.406;10.008;2023-03-01T02:55:25;15.73;;;8.23;;
74347;SDS011;62778;50.406;10.008;2023-03-01T02:56:22;14.38;;;8.20;;
74347;SDS011;62778;50.406;10.008;2023-03-01T02:57:17;14.90;;;8.30;;
74347;SDS011;62778;50.406;10.008;2023-03-01T02:58:13;15.70;;;8.18;;
74347;SDS011;62778;50.406;10.008;2023-03-01T02:59:09;15.00;;;7.93;;
74347;SDS011;62778;50.406;10.008;2023-03-01T03:00:06;15.93;;;8.48;;
74347;SDS011;62778;50.406;10.008;2023-03-01T03:01:11;15.35;;;7.80;;
74347;SDS011;62778;50.406;10.008;2023-03-01T03:02:19;15.30;;;8.13;;
74347;SDS011;62778;50.406;10.008;2023-03-01T03:03:30;13.82;;;7.40;;
74347;SDS011;62778;50.406;10.008;2023-03-01T03:04:26;15.48;;;7.85;;
74347;SDS011;62778;50.406;10.008;2023-03-01T03:05:22;13.83;;;8.20;;
74347;SDS011;62778;50.406;10.008;2023-03-01T03:06:19;15.10;;;8.25;;
74347;SDS011;62778;50.406;10.008;2023-03-01T03:07:14;13.53;;;8.00;;
74347;SDS011;62778;50.406;10.008;2023-03-01T03:08:10;15.40;;;8.23;;
74347;SDS011;62778;50.406;10.008;2023-03-01T03:09:06;15.50;;;7.93;;
74347;SDS011;62778;50.406;10.008;2023-03-01T03:10:03;15.18;;;8.32;;
74347;SDS011;62778;50.406;10.008;2023-03-01T03:10:59;13.63;;;7.95;;
74347;SDS011;62778;50.406;10.008;2023-03-01T03:11:55;15.23;;;7.87;;
74347;SDS011;62778;50.406;10.008;2023-03-01T03:12:51;15.53;;;8.37;;
74347;SDS011;62778;50.406;10.008;2023-03-01T03:13:47;14.57;;;8.15;;
74347;SDS011;62778;50.406;10.008;2023-03-01T03:14:43;16.97;;;8.60;;
74347;SDS011;62778;50.406;10.008;2023-03-01T03:15:38;16.17;;;8.68;;
74347;SDS011;62778;50.406;10.008;2023-03-01T03:16:35;16.13;;;8.17;;
74347;SDS011;62778;50.406;10.008;2023-03-01T03:17:30;16.50;;;8.57;;
74347;SDS011;62778;50.406;10.008;2023-03-01T03:18:25;15.67;;;8.80;;
74347;SDS011;62778;50.406;10.008;2023-03-01T03:19:21;13.87;;;8.00;;
74347;SDS011;62778;50.406;10.008;2023-03-01T03:20:17;16.13;;;9.20;;
74347;SDS011;62778;50.406;10.008;2023-03-01T03:21:14;14.65;;;7.75;;
74347;SDS011;62778;50.406;10.008;2023-03-01T03:22:11;17.15;;;8.50;;
74347;SDS011;62778;50.406;10.008;2023-03-01T03:23:07;15.73;;;8.60;;
74347;SDS011;62778;50.406;10.008;2023-03-01T03:24:02;14.43;;;8.00;;
74347;SDS011;62778;50.406;10.008;2023-03-01T03:24:58;14.87;;;8.17;;
74347;SDS011;62778;50.406;10.008;2023-03-01T03:25:53;15.98;;;8.35;;
74347;SDS011;62778;50.406;10.008;2023-03-01T03:26:49;14.93;;;8.40;;
74347;SDS011;62778;50.406;10.008;2023-03-01T03:27:45;15.83;;;8.37;;
74347;SDS011;62778;50.406;10.008;2023-03-01T03:28:41;13.63;;;7.45;;
74347;SDS011;62778;50.406;10.008;2023-03-01T03:29:36;15.63;;;8.30;;
74347;SDS011;62778;50.406;10.008;2023-03-01T03:30:31;15.20;;;8.47;;
74347;SDS011;62778;50.406;10.008;2023-03-01T03:31:27;14.55;;;7.95;;
74347;SDS011;62778;50.406;10.008;2023-03-01T03:32:23;15.20;;;8.20;;
74347;SDS011;62778;50.406;10.008;2023-03-01T03:33:18;13.57;;;7.95;;
74347;SDS011;62778;50.406;10.008;2023-03-01T03:34:13;16.50;;;8.75;;
74347;SDS011;62778;50.406;10.008;2023-03-01T03:35:12;15.82;;;8.05;;
74347;SDS011;62778;50.406;10.008;2023-03-01T03:36:08;16.93;;;8.80;;
74347;SDS011;62778;50.406;10.008;2023-03-01T03:37:07;16.27;;;8.55;;
74347;SDS011;62778;50.406;10.008;2023-03-01T03:38:23;14.57;;;7.97;;
74347;SDS011;62778;50.406;10.008;2023-03-01T03:39:18;14.07;;;7.67;;
74347;SDS011;62778;50.406;10.008;2023-03-01T03:40:14;15.27;;;8.25;;
74347;SDS011;62778;50.406;10.008;2023-03-01T03:41:10;15.37;;;7.97;;
74347;SDS011;62778;50.406;10.008;2023-03-01T03:42:05;15.75;;;8.15;;
74347;SDS011;62778;50.406;10.008;2023-03-01T03:43:01;13.93;;;7.87;;
74347;SDS011;62778;50.406;10.008;2023-03-01T03:43:57;16.70;;;8.25;;
74347;SDS011;62778;50.406;10.008;2023-03-01T03:44:53;15.57;;;8.70;;
74347;SDS011;62778;50.406;10.008;2023-03-01T03:45:49;15.80;;;8.70;;
74347;SDS011;62778;50.406;10.008;2023-03-01T03:46:45;14.20;;;8.02;;
74347;SDS011;62778;50.406;10.008;2023-03-01T03:47:40;16.23;;;8.23;;
74347;SDS011;62778;50.406;10.008;2023-03-01T03:48:38;15.52;;;8.80;;
74347;SDS011;62778;50.406;10.008;2023-03-01T03:49:36;15.18;;;7.75;;
74347;SDS011;62778;50.406;10.008;2023-03-01T03:50:32;14.83;;;8.00;;
74347;SDS011;62778;50.406;10.008;2023-03-01T03:51:27;13.82;;;7.40;;
74347;SDS011;62778;50.406;10.008;2023-03-01T03:52:23;18.27;;;8.60;;
74347;SDS011;62778;50.406;10.008;2023-03-01T03:53:18;14.63;;;7.73;;
74347;SDS011;62778;50.406;10.008;2023-03-01T03:54:13;15.10;;;8.05;;
74347;SDS011;62778;50.406;10.008;2023-03-01T03:55:10;14.77;;;8.83;;
74347;SDS011;62778;50.406;10.008;2023-03-01T03:56:06;18.50;;;10.00;;
74347;SDS011;62778;50.406;10.008;2023-03-01T03:57:02;16.97;;;9.57;;
74347;SDS011;62778;50.406;10.008;2023-03-01T03:57:58;16.30;;;8.95;;
74347;SDS011;62778;50.406;10.008;2023-03-01T03:58:57;18.77;;;10.43;;
74347;SDS011;62778;50.406;10.008;2023-03-01T03:59:52;15.40;;;8.67;;
74347;SDS011;62778;50.406;10.008;2023-03-01T04:00:49;17.93;;;9.47;;
74347;SDS011;62778;50.406;10.008;2023-03-01T04:01:45;16.17;;;8.88;;
74347;SDS011;62778;50.406;10.008;2023-03-01T04:02:41;15.03;;;8.40;;
74347;SDS011;62778;50.406;10.008;2023-03-01T04:03:37;16.67;;;8.95;;
74347;SDS011;62778;50.406;10.008;2023-03-01T04:04:32;17.13;;;9.35;;
74347;SDS011;62778;50.406;10.008;2023-03-01T04:05:28;17.30;;;9.73;;
74347;SDS011;62778;50.406;10.008;2023-03-01T04:06:23;16.00;;;8.63;;
74347;SDS011;62778;50.406;10.008;2023-03-01T04:07:19;16.50;;;9.48;;
74347;SDS011;62778;50.406;10.008;2023-03-01T04:08:14;14.70;;;8.45;;
74347;SDS011;62778;50.406;10.008;2023-03-01T04:09:09;18.13;;;9.63;;
74347;SDS011;62778;50.406;10.008;2023-03-01T04:10:05;15.97;;;8.20;;
74347;SDS011;62778;50.406;10.008;2023-03-01T04:11:03;16.58;;;8.50;;
74347;SDS011;62778;50.406;10.008;2023-03-01T04:12:19;15.85;;;8.50;;
74347;SDS011;62778;50.406;10.008;2023-03-01T04:13:18;16.10;;;8.48;;
74347;SDS011;62778;50.406;10.008;2023-03-01T04:14:15;14.48;;;7.65;;
74347;SDS011;62778;50.406;10.008;2023-03-01T04:15:11;19.50;;;10.23;;
74347;SDS011;62778;50.406;10.008;2023-03-01T04:16:10;18.50;;;9.65;;
74347;SDS011;62778;50.406;10.008;2023-03-01T04:17:05;16.87;;;9.13;;
74347;SDS011;62778;50.406;10.008;2023-03-01T04:18:00;16.73;;;9.30;;
74347;SDS011;62778;50.406;10.008;2023-03-01T04:18:56;17.00;;;8.90;;
74347;SDS011;62778;50.406;10.008;2023-03-01T04:19:57;18.63;;;9.93;;
74347;SDS011;62778;50.406;10.008;2023-03-01T04:20:53;17.25;;;9.55;;
74347;SDS011;62778;50.406;10.008;2023-03-01T04:21:50;17.13;;;9.38;;
74347;SDS011;62778;50.406;10.008;2023-03-01T04:22:45;15.87;;;8.67;;
74347;SDS011;62778;50.406;10.008;2023-03-01T04:23:41;15.70;;;9.40;;
74347;SDS011;62778;50.406;10.008;2023-03-01T04:24:37;18.50;;;9.75;;
74347;SDS011;62778;50.406;10.008;2023-03-01T04:25:32;16.85;;;9.32;;
74347;SDS011;62778;50.406;10.008;2023-03-01T04:26:28;19.67;;;10.53;;
74347;SDS011;62778;50.406;10.008;2023-03-01T04:27:23;17.60;;;9.83;;
74347;SDS011;62778;50.406;10.008;2023-03-01T04:28:19;16.57;;;9.50;;
74347;SDS011;62778;50.406;10.008;2023-03-01T04:29:15;17.08;;;8.93;;
74347;SDS011;62778;50.406;10.008;2023-03-01T04:30:11;16.45;;;9.43;;
74347;SDS011;62778;50.406;10.008;2023-03-01T04:31:07;17.43;;;9.80;;
74347;SDS011;62778;50.406;10.008;2023-03-01T04:32:15;18.13;;;9.60;;
74347;SDS011;62778;50.406;10.008;2023-03-01T04:33:11;17.35;;;9.80;;
74347;SDS011;62778;50.406;10.008;2023-03-01T04:34:06;17.77;;;10.40;;
74347;SDS011;62778;50.406;10.008;2023-03-01T04:35:02;19.97;;;10.33;;
74347;SDS011;62778;50.406;10.008;2023-03-01T04:35:57;15.30;;;9.03;;
74347;SDS011;62778;50.406;10.008;2023-03-01T04:36:52;17.47;;;10.07;;
74347;SDS011;62778;50.406;10.008;2023-03-01T04:37:48;16.65;;;9.55;;
74347;SDS011;62778;50.406;10.008;2023-03-01T04:38:44;19.93;;;9.77;;
74347;SDS011;62778;50.406;10.008;2023-03-01T04:39:42;19.65;;;10.73;;
74347;SDS011;62778;50.406;10.008;2023-03-01T04:40:42;17.90;;;9.70;;
74347;SDS011;62778;50.406;10.008;2023-03-01T04:41:38;17.17;;;9.85;;
74347;SDS011;62778;50.406;10.008;2023-03-01T04:42:34;16.98;;;9.10;;
74347;SDS011;62778;50.406;10.008;2023-03-01T04:43:29;18.93;;;10.27;;
74347;SDS011;62778;50.406;10.008;2023-03-01T04:44:24;18.23;;;9.97;;
74347;SDS011;62778;50.406;10.008;2023-03-01T04:45:20;16.98;;;9.00;;
74347;SDS011;62778;50.406;10.008;2023-03-01T04:46:16;15.83;;;9.80;;
74347;SDS011;62778;50.406;10.008;2023-03-01T04:47:13;18.58;;;10.05;;
74347;SDS011;62778;50.406;10.008;2023-03-01T04:48:08;18.10;;;9.77;;
74347;SDS011;62778;50.406;10.008;2023-03-01T04:49:03;15.40;;;9.10;;
74347;SDS011;62778;50.406;10.008;2023-03-01T04:50:00;16.42;;;9.35;;
74347;SDS011;62778;50.406;10.008;2023-03-01T04:50:55;20.07;;;11.27;;
74347;SDS011;62778;50.406;10.008;2023-03-01T04:51:50;18.25;;;9.20;;
74347;SDS011;62778;50.406;10.008;2023-03-01T04:52:46;18.67;;;9.80;;
74347;SDS011;62778;50.406;10.008;2023-03-01T04:53:42;18.42;;;9.75;;
74347;SDS011;62778;50.406;10.008;2023-03-01T04:54:38;17.85;;;10.10;;
74347;SDS011;62778;50.406;10.008;2023-03-01T04:55:33;19.00;;;10.37;;
74347;SDS011;62778;50.406;10.008;2023-03-01T04:56:28;19.07;;;9.67;;
74347;SDS011;62778;50.406;10.008;2023-03-01T04:57:24;18.50;;;9.67;;
74347;SDS011;62778;50.406;10.008;2023-03-01T04:58:19;19.60;;;10.20;;
74347;SDS011;62778;50.406;10.008;2023-03-01T04:59:14;16.52;;;9.70;;
74347;SDS011;62778;50.406;10.008;2023-03-01T05:00:11;21.87;;;11.23;;
74347;SDS011;62778;50.406;10.008;2023-03-01T05:01:17;18.52;;;9.80;;
74347;SDS011;62778;50.406;10.008;2023-03-01T05:02:14;19.50;;;9.93;;
74347;SDS011;62778;50.406;10.008;2023-03-01T05:03:10;18.70;;;10.37;;
74347;SDS011;62778;50.406;10.008;2023-03-01T05:04:05;18.17;;;9.27;;
74347;SDS011;62778;50.406;10.008;2023-03-01T05:05:00;18.87;;;10.57;;
74347;SDS011;62778;50.406;10.008;2023-03-01T05:05:58;17.95;;;9.57;;
74347;SDS011;62778;50.406;10.008;2023-03-01T05:06:54;15.82;;;8.98;;
74347;SDS011;62778;50.406;10.008;2023-03-01T05:07:51;19.77;;;10.60;;
74347;SDS011;62778;50.406;10.008;2023-03-01T05:08:50;20.23;;;10.60;;
74347;SDS011;62778;50.406;10.008;2023-03-01T05:09:46;16.67;;;9.80;;
74347;SDS011;62778;50.406;10.008;2023-03-01T05:10:41;19.60;;;10.48;;
74347;SDS011;62778;50.406;10.008;2023-03-01T05:11:37;16.57;;;9.67;;
74347;SDS011;62778;50.406;10.008;2023-03-01T05:12:33;16.90;;;9.00;;
74347;SDS011;62778;50.406;10.008;2023-03-01T05:13:28;19.90;;;10.13;;
74347;SDS011;62778;50.406;10.008;2023-03-01T05:14:24;21.77;;;11.25;;
74347;SDS011;62778;50.406;10.008;2023-03-01T05:15:19;18.57;;;10.30;;
74347;SDS011;62778;50.406;10.008;2023-03-01T05:16:16;17.67;;;10.23;;
74347;SDS011;62778;50.406;10.008;2023-03-01T05:17:12;18.33;;;10.02;;
74347;SDS011;62778;50.406;10.008;2023-03-01T05:18:07;18.53;;;10.37;;
74347;SDS011;62778;50.406;10.008;2023-03-01T05:19:06;17.42;;;9.32;;
74347;SDS011;62778;50.406;10.008;2023-03-01T05:20:06;17.15;;;9.70;;
74347;SDS011;62778;50.406;10.008;2023-03-01T05:21:05;18.83;;;10.43;;
74347;SDS011;62778;50.406;10.008;2023-03-01T05:22:01;17.42;;;10.32;;
74347;SDS011;62778;50.406;10.008;2023-03-01T05:22:59;18.55;;;10.38;;
74347;SDS011;62778;50.406;10.008;2023-03-01T05:23:54;18.92;;;10.07;;
74347;SDS011;62778;50.406;10.008;2023-03-01T05:24:50;18.30;;;10.32;;
74347;SDS011;62778;50.406;10.008;2023-03-01T05:25:46;17.90;;;10.17;;
74347;SDS011;62778;50.406;10.008;2023-03-01T05:26:41;18.40;;;10.00;;
74347;SDS011;62778;50.406;10.008;2023-03-01T05:27:36;19.20;;;11.37;;
74347;SDS011;62778;50.406;10.008;2023-03-01T05:28:32;18.08;;;10.15;;
74347;SDS011;62778;50.406;10.008;2023-03-01T05:29:28;18.27;;;10.90;;
74347;SDS011;62778;50.406;10.008;2023-03-01T05:30:25;19.70;;;10.63;;
74347;SDS011;62778;50.406;10.008;2023-03-01T05:31:20;17.43;;;9.93;;
74347;SDS011;62778;50.406;10.008;2023-03-01T05:32:15;18.53;;;9.73;;
74347;SDS011;62778;50.406;10.008;2023-03-01T05:33:11;18.10;;;10.02;;
74347;SDS011;62778;50.406;10.008;2023-03-01T05:34:09;19.77;;;10.38;;
74347;SDS011;62778;50.406;10.008;2023-03-01T05:35:07;20.20;;;10.43;;
74347;SDS011;62778;50.406;10.008;2023-03-01T05:36:03;20.80;;;10.70;;
74347;SDS011;62778;50.406;10.008;2023-03-01T05:36:59;19.60;;;10.93;;
74347;SDS011;62778;50.406;10.008;2023-03-01T05:37:54;18.73;;;9.70;;